Bookmark and Share
Track history (hours):
 

Drifting buoy 46533

Last reported at 2014-Apr-23 22:20 UTC. Time now 2014-Apr-24 00:13 UTC.
Position N 54°42' E 168°45'.

Barometer 1004.3 mb
Water temperature 2.7 ° C

NotesDate/timePositionNaut miles runAvg speedWind from/ knotsBaromVisibWave heightAir tempDewpointWater temp
2014-Apr-23 22:20N 54°42' E 168°45'1 0.6 1004.3 2.7
2014-Apr-23 21:20N 54°42' E 168°45'1 0.6 1004.9 2.7
2014-Apr-23 20:20N 54°42' E 168°44'0 0.1 1004.9 2.7
2014-Apr-23 18:20N 54°42' E 168°44'1 0.6 1006.3 2.6
2014-Apr-23 17:20N 54°42' E 168°43'1 0.3 1006.3 2.6
2014-Apr-23 15:20N 54°42' E 168°43'0 0.2 1007.2 2.6
2014-Apr-23 14:20N 54°42' E 168°43'0 0.0 1007.3 2.6
2014-Apr-23 13:20N 54°42' E 168°43'2 0.5 1008.0 2.6
2014-Apr-23 10:20N 54°44' E 168°43'0 0.1 1009.1 2.6
2014-Apr-23 08:20N 54°44' E 168°43'0 0.5 1009.2 2.6
2014-Apr-23 07:20N 54°44' E 168°42'1 0.3 1009.4 2.6
2014-Apr-23 03:20N 54°45' E 168°42'0 0.3 1009.1 2.6
2014-Apr-23 02:20N 54°45' E 168°41'0 0.4 1009.3 2.6
2014-Apr-23 01:20N 54°46' E 168°41'1 0.6 1009.1 2.6
2014-Apr-23 00:20N 54°46' E 168°40'1 1.0 1009.3 2.6
2014-Apr-22 23:20N 54°47' E 168°40'1 0.3 1009.1 2.6
2014-Apr-22 21:20N 54°47' E 168°41'1 0.5 1009.1 2.6
2014-Apr-22 20:20N 54°48' E 168°40'1 0.6 1008.9 2.6
2014-Apr-22 19:20N 54°48' E 168°40'0 0.4 1008.9 2.6
2014-Apr-22 18:20N 54°48' E 168°40'0 0.3 1008.4 2.6
2014-Apr-22 17:20N 54°48' E 168°41'1 1.3 1008.3 2.6
2014-Apr-22 16:20N 54°49' E 168°41'0 0.0 1008.2 2.6
2014-Apr-22 15:20N 54°49' E 168°41'1 0.6 1007.6 2.6
2014-Apr-22 13:20N 54°51' E 168°41'1 0.2 1007.0 2.7
2014-Apr-22 10:20N 54°51' E 168°41'0 0.5 1006.6 2.7
2014-Apr-22 09:20N 54°51' E 168°41'0 0.3 1006.0 2.7
2014-Apr-22 08:20N 54°52' E 168°41'2 0.3 1006.2 2.7
2014-Apr-22 02:20N 54°53' E 168°43'0 0.4 1001.6 2.8
2014-Apr-22 01:20N 54°53' E 168°43'1 0.7 1001.1 2.8
2014-Apr-22 00:20N 54°53' E 168°43'0 0.0 1000.9 2.8
2014-Apr-21 23:20N 54°53' E 168°43'2 0.6 1001.0 2.8
2014-Apr-21 20:20N 54°55' E 168°44'0 0.0 1000.9 2.8
2014-Apr-21 19:20N 54°55' E 168°44'0 0.2 1000.6 2.8
2014-Apr-21 18:20N 54°55' E 168°44'0 0.0 1000.6 2.8
2014-Apr-21 16:20N 54°55' E 168°44'0 0.0 1000.0 2.8
2014-Apr-21 15:20N 54°55' E 168°44'1 0.7 1000.2 2.8
2014-Apr-21 14:20N 54°56' E 168°45'1 0.3 1000.1 2.8
2014-Apr-21 10:20N 54°56' E 168°47'2 0.7 1000.7 2.8
2014-Apr-21 07:20N 54°56' E 168°50'0 0.0 1000.9 2.9
2014-Apr-21 06:20N 54°56' E 168°50'0 0.0 1000.8 2.9
2014-Apr-21 05:20N 54°56' E 168°50'1 0.8 1001.0 2.9
2014-Apr-21 04:20N 54°56' E 168°49'1 0.7 1001.1 2.9
2014-Apr-21 03:20N 54°55' E 168°50'0 0.2 1001.1 2.9
2014-Apr-21 01:20N 54°55' E 168°51'1 0.5 1002.3 2.9
2014-Apr-20 22:20N 54°54' E 168°53'1 0.8 1003.6 2.9
2014-Apr-20 21:20N 54°54' E 168°54'0 0.1 1004.1 2.9
2014-Apr-20 20:20N 54°54' E 168°54'0 0.0 1004.6 2.9
2014-Apr-20 18:20N 54°54' E 168°54'0 0.1 1004.9 3.0
2014-Apr-20 17:20N 54°54' E 168°54'1 0.4 1005.1 3.0
2014-Apr-20 15:20N 54°53' E 168°55'0 0.0 1005.8 3.0
2014-Apr-20 14:20N 54°53' E 168°55'1 0.3 1006.7 3.1
2014-Apr-20 12:20N 54°53' E 168°55'1 0.2 1007.7 3.1
2014-Apr-20 08:20N 54°52' E 168°54'0 0.4 1009.8 3.2
2014-Apr-20 07:20N 54°52' E 168°54'1 0.3 1010.0 3.2
2014-Apr-20 04:20N 54°52' E 168°53'1 0.6 1010.9 3.5
2014-Apr-20 03:20N 54°51' E 168°54'1 0.7 1011.0 3.8
2014-Apr-20 02:20N 54°52' E 168°52'1 0.9 1011.8 4.4
2014-Apr-20 01:20N 54°52' E 168°54'1 1.0 1012.8 4.0
2014-Apr-20 00:20N 54°52' E 168°52'0 0.1 1013.2 3.5
2014-Apr-19 22:20N 54°52' E 168°52'0 0.5 1013.0 3.0
2014-Apr-19 21:20N 54°52' E 168°51'0 0.2 1012.9 2.9
2014-Apr-19 19:20N 54°52' E 168°50'0 0.2 1012.7 2.8
2014-Apr-19 18:20N 54°52' E 168°50'0 0.1 1012.6 2.8
2014-Apr-19 17:20N 54°52' E 168°51'1 0.3 1012.7 2.9
2014-Apr-19 15:20N 54°53' E 168°50'0 0.0 1012.8 2.9
2014-Apr-19 14:20N 54°53' E 168°50'2 0.4 1012.9 2.9
2014-Apr-19 10:20N 54°54' E 168°50'1 0.7 1012.9 2.9
2014-Apr-19 09:20N 54°54' E 168°49'0 0.2 1012.9 2.9
2014-Apr-19 08:20N 54°54' E 168°49'1 0.6 1012.7 2.9
2014-Apr-19 06:20N 54°55' E 168°49'0 0.2 1012.6 2.9
2014-Apr-19 05:20N 54°55' E 168°49'1 0.3 1012.6 2.9
2014-Apr-19 03:20N 54°56' E 168°50'0 0.0 1012.6 2.9
2014-Apr-19 02:20N 54°56' E 168°50'1 0.9 1012.6 2.9
2014-Apr-19 01:20N 54°56' E 168°50'0 0.0 1012.4 2.9
2014-Apr-19 00:20N 54°56' E 168°50'0 0.3 1012.5 2.9
2014-Apr-18 23:20N 54°57' E 168°51'0 0.4 1012.4 2.9
2014-Apr-18 22:20N 54°57' E 168°51'0 0.4 1012.3 2.9
2014-Apr-18 21:20N 54°57' E 168°50'1 0.5 1012.1 2.9
2014-Apr-18 19:20N 54°58' E 168°51'1 0.4 1011.6 2.9
2014-Apr-18 17:20N 54°59' E 168°50'1 0.5 1011.0 2.9
2014-Apr-18 16:20N 54°59' E 168°51'0 0.2 1010.9 2.9
2014-Apr-18 15:20N 54°59' E 168°50'1 0.6 1010.9 2.9
2014-Apr-18 14:20N 55°00' E 168°50'1 0.6 1010.8 2.9
2014-Apr-18 12:20N 55°01' E 168°51'0 0.1 1010.7 2.9
2014-Apr-18 09:20N 55°01' E 168°51'1 0.5 1010.6 2.9
2014-Apr-18 07:20N 55°02' E 168°51'1 0.6 1010.0 3.0
2014-Apr-18 05:20N 55°03' E 168°52'1 0.5 1009.8 3.0
2014-Apr-18 03:20N 55°04' E 168°52'0 0.0 1010.4 2.9
2014-Apr-18 02:20N 55°04' E 168°52'0 0.2 1010.4 2.9
2014-Apr-17 23:20N 55°05' E 168°53'0 0.2 1011.0 2.9
2014-Apr-17 22:20N 55°05' E 168°53'0 0.0 1011.0 2.8
2014-Apr-17 21:20N 55°05' E 168°53'1 1.0 1011.1 2.8
2014-Apr-17 20:20N 55°05' E 168°54'0 0.2 1011.1 2.8
2014-Apr-17 19:20N 55°06' E 168°54'1 0.4 1011.1 2.8
2014-Apr-17 17:20N 55°06' E 168°55'2 0.4 1011.3 2.8
2014-Apr-17 13:20N 55°08' E 168°56'0 0.0 1012.2 2.8
2014-Apr-17 12:20N 55°08' E 168°56'0 0.4 1012.3 2.8
2014-Apr-17 11:20N 55°08' E 168°56'0 0.1 1012.5 2.8
2014-Apr-17 09:20N 55°08' E 168°57'2 0.6 1012.7 2.8
2014-Apr-17 06:20N 55°09' E 168°59'0 0.0 1012.5 2.8
2014-Apr-17 05:20N 55°09' E 168°59'0 0.1 1012.4 2.8
2014-Apr-17 04:20N 55°09' E 168°59'1 0.7 1012.5 2.8
2014-Apr-17 03:20N 55°10' E 168°60'0 0.2 1012.5 2.8
2014-Apr-17 02:20N 55°10' E 168°59'1 0.7 1012.9 2.8
2014-Apr-17 01:20N 55°10' E 168°59'0 0.0 1012.6 2.8
2014-Apr-17 00:20N 55°10' E 168°59'1 1.0 1012.7 2.7
2014-Apr-16 23:20N 55°11' E 169°00'0 0.3 1012.3 2.7
2014-Apr-16 22:20N 55°11' E 168°60'1 0.5 1012.4 2.7
2014-Apr-16 19:20N 55°12' E 169°02'1 1.2 1012.0 2.6
2014-Apr-16 18:20N 55°11' E 169°04'1 0.7 1011.9 2.6
2014-Apr-16 17:20N 55°12' E 169°05'0 0.3 1011.7 2.6
2014-Apr-16 16:20N 55°12' E 169°04'2 0.4 1011.6 2.6
2014-Apr-16 11:20N 55°12' E 169°08'0 0.0 1010.6 2.6
2014-Apr-16 10:20N 55°12' E 169°08'1 0.5 1011.0 2.6
2014-Apr-16 09:20N 55°12' E 169°08'1 0.3 1010.9 2.7
2014-Apr-16 06:20N 55°12' E 169°10'1 0.3 1009.7 2.7
2014-Apr-16 02:20N 55°11' E 169°12'0 0.2 1009.2 2.7
2014-Apr-16 00:20N 55°11' E 169°12'0 0.0 1008.8 2.7
2014-Apr-15 23:20N 55°11' E 169°12'1 1.1 1008.6 2.7
2014-Apr-15 22:20N 55°11' E 169°14'1 0.6 1008.3 2.7
2014-Apr-15 21:20N 55°10' E 169°15'0 0.2 1007.9 2.7
2014-Apr-15 19:20N 55°10' E 169°14'0 0.2 1007.1 2.7
2014-Apr-15 17:20N 55°10' E 169°15'1 0.8 1005.8 2.7
2014-Apr-15 16:20N 55°10' E 169°16'0 0.1 1005.1 2.6
2014-Apr-15 14:20N 55°10' E 169°16'0 0.2 1004.6 2.7
2014-Apr-15 13:20N 55°10' E 169°16'0 0.1 1004.2 2.7
2014-Apr-15 08:20N 55°10' E 169°15'0 0.3 1001.5 2.7
2014-Apr-15 07:20N 55°10' E 169°16'0 0.4 1000.8 2.7
2014-Apr-15 06:20N 55°10' E 169°17'1 0.3 1000.5 2.7
2014-Apr-15 03:20N 55°11' E 169°17'0 0.1 999.2 2.7
2014-Apr-15 02:20N 55°10' E 169°18'0 0.3 998.8 2.7
2014-Apr-15 01:20N 55°11' E 169°18'0 0.4 998.6 2.7
2014-Apr-15 00:20N 55°11' E 169°19'1 0.7 998.5 2.7
2014-Apr-14 23:20N 55°11' E 169°18'0 0.0 998.4 2.7
2014-Apr-14 22:20N 55°11' E 169°18'0 0.0 998.2 2.7
2014-Apr-14 21:20N 55°11' E 169°18'0 0.0 997.9 2.7
2014-Apr-14 20:20N 55°11' E 169°18'1 0.3 997.5 2.7
2014-Apr-14 18:20N 55°11' E 169°19'0 0.3 996.6 2.7
2014-Apr-14 17:20N 55°11' E 169°19'1 1.4 996.2 2.7
2014-Apr-14 16:20N 55°12' E 169°21'0 0.1 995.7 2.7
2014-Apr-14 12:20N 55°12' E 169°21'0 0.2 996.2 2.7
2014-Apr-14 10:20N 55°12' E 169°20'0 0.2 996.8 2.7
2014-Apr-14 08:20N 55°12' E 169°21'1 0.2 996.6 2.7
2014-Apr-14 04:20N 55°13' E 169°23'0 0.3 996.3 2.7
2014-Apr-14 03:20N 55°13' E 169°23'0 0.4 996.6 2.8
2014-Apr-14 02:20N 55°13' E 169°24'0 0.3 996.5 2.7
2014-Apr-14 01:20N 55°13' E 169°23'1 0.8 997.1 2.7
2014-Apr-14 00:20N 55°13' E 169°24'0 0.5 997.3 2.7
2014-Apr-13 23:20N 55°14' E 169°24'0 0.0 997.3 2.7
2014-Apr-13 22:20N 55°14' E 169°24'   997.2 2.7

Dump ship's entire track history

sailing weather and tide predictions

Buoy 46533